Time;durP1;ratioP1;P1;durP2;ratioP2;P2;SDS_P1;SDS_P2;PMS_P1;PMS_P2;Temp;Humidity;BMP_temperature;BMP_pressure;BME280_temperature;BME280_humidity;BME280_pressure;Samples;Min_cycle;Max_cycle;Signal;HPM_P1;HPM_P2
2024/01/18 00:01:51;;;;;;;1.63;1.33;;;;;;;-143.84;98.13;45134.75;5090132;28;21038;-61
2024/01/18 00:04:19;;;;;;;0.80;0.50;;;;;;;-143.84;98.06;45136.66;5090131;28;20444;-61
2024/01/18 00:06:46;;;;;;;4.83;1.60;;;;;;;-143.84;97.58;45134.75;5089997;28;20838;-61
2024/01/18 00:09:13;;;;;;;4.90;1.40;;;;;;;-143.84;97.81;45140.47;5089930;28;20443;-61
2024/01/18 00:11:40;;;;;;;1.00;0.90;;;;;;;-143.84;97.88;45151.91;5090061;28;20475;-61
2024/01/18 00:14:08;;;;;;;2.27;1.60;;;;;;;-143.84;96.98;45155.69;5090271;28;20493;-61
2024/01/18 00:16:35;;;;;;;3.20;1.57;;;;;;;-143.84;97.15;45151.91;5084238;28;20977;-62
2024/01/18 00:19:02;;;;;;;2.23;2.13;;;;;;;-143.84;97.07;45148.09;5069913;28;20484;-61
2024/01/18 00:21:31;;;;;;;0.80;0.67;;;;;;;-143.84;97.01;45170.94;5069548;28;20452;-61
2024/01/18 00:23:58;;;;;;;0.80;0.70;;;;;;;-143.84;96.55;45150.00;5069635;28;20441;-61
2024/01/18 00:26:25;;;;;;;2.97;1.20;;;;;;;-143.84;97.28;45167.13;5069624;28;20445;-61
2024/01/18 00:28:52;;;;;;;4.93;2.20;;;;;;;-143.84;96.89;45153.81;5069587;28;20870;-61
2024/01/18 00:31:19;;;;;;;1.00;0.70;;;;;;;-143.84;97.06;45129.03;5069779;28;20521;-61
2024/01/18 00:33:46;;;;;;;0.90;0.67;;;;;;;-143.84;96.88;45169.03;5069441;28;20448;-61
2024/01/18 00:36:13;;;;;;;1.83;0.57;;;;;;;-143.84;97.29;45146.19;5069065;28;20440;-61
2024/01/18 00:38:42;;;;;;;1.23;1.13;;;;;;;-143.84;96.70;45132.84;5068941;28;20484;-62
2024/01/18 00:41:10;;;;;;;2.80;1.70;;;;;;;-143.84;96.92;45157.59;5069647;28;20445;-61
2024/01/18 00:43:39;;;;;;;2.33;2.17;;;;;;;-143.84;97.04;45163.31;5069236;28;20429;-61
2024/01/18 00:46:06;;;;;;;1.87;1.27;;;;;;;-143.84;96.70;45151.91;5069254;28;20449;-62
2024/01/18 00:48:33;;;;;;;1.63;1.53;;;;;;;-143.84;96.63;45155.69;5068992;28;20965;-61
2024/01/18 00:51:01;;;;;;;2.30;1.73;;;;;;;-143.84;96.56;45157.59;5068923;28;20506;-61
2024/01/18 00:53:28;;;;;;;1.23;1.13;;;;;;;-143.84;96.56;45153.81;5068791;28;20433;-61
2024/01/18 00:55:56;;;;;;;3.57;1.53;;;;;;;-143.84;96.38;45155.69;5069042;28;20471;-61
2024/01/18 00:58:24;;;;;;;0.93;0.83;;;;;;;-143.84;96.35;45188.06;5068913;28;20531;-61
2024/01/18 01:00:50;;;;;;;1.40;1.30;;;;;;;-143.84;96.30;45172.84;5068841;28;20960;-61
2024/01/18 01:03:17;;;;;;;2.10;1.77;;;;;;;-143.84;96.46;45163.31;5068719;28;20957;-61
2024/01/18 01:05:44;;;;;;;0.90;0.80;;;;;;;-143.84;96.24;45180.47;5068267;28;21008;-62
2024/01/18 01:08:11;;;;;;;1.70;0.80;;;;;;;-143.84;96.64;45163.31;5068371;28;20448;-61
2024/01/18 01:10:38;;;;;;;1.00;0.90;;;;;;;-143.84;96.94;45153.81;5067653;28;20484;-62
2024/01/18 01:13:08;;;;;;;1.37;1.17;;;;;;;-143.84;96.42;45150.00;5069026;28;20837;-62
2024/01/18 01:15:35;;;;;;;1.83;1.73;;;;;;;-143.84;97.15;45167.13;5069189;28;20445;-61
2024/01/18 01:18:02;;;;;;;2.70;1.97;;;;;;;-143.84;97.24;45167.13;5068782;28;20957;-61
2024/01/18 01:20:30;;;;;;;1.80;1.30;;;;;;;-143.84;98.11;45129.03;5068741;28;20484;-61
2024/01/18 01:22:57;;;;;;;0.80;0.60;;;;;;;-143.84;98.04;45134.75;5068844;28;20498;-61
2024/01/18 01:25:24;;;;;;;1.40;0.90;;;;;;;-143.84;97.95;45155.69;5069044;28;20446;-61
2024/01/18 01:27:51;;;;;;;1.00;0.87;;;;;;;-143.84;98.08;45176.66;5068895;28;20498;-61
2024/01/18 01:30:20;;;;;;;1.23;1.13;;;;;;;-143.84;98.42;45144.28;5068874;28;20445;-61
2024/01/18 01:32:47;;;;;;;0.83;0.80;;;;;;;-143.84;98.79;45132.84;5068764;28;20448;-61
2024/01/18 01:35:14;;;;;;;0.90;0.80;;;;;;;-143.84;98.24;45169.03;5068815;28;20502;-61
2024/01/18 01:37:42;;;;;;;1.87;1.43;;;;;;;-143.84;99.27;45129.03;5068712;28;20444;-61
2024/01/18 01:40:09;;;;;;;3.47;1.60;;;;;;;-143.84;99.37;45157.59;5068806;28;20480;-61
2024/01/18 01:42:36;;;;;;;0.80;0.70;;;;;;;-143.84;99.36;45121.44;5068525;28;20445;-61
2024/01/18 01:45:05;;;;;;;1.43;1.33;;;;;;;-143.84;99.60;45153.81;5068401;28;20998;-61
2024/01/18 01:47:33;;;;;;;0.80;0.70;;;;;;;-143.84;99.71;45134.75;5068984;28;20441;-61
2024/01/18 01:50:02;;;;;;;0.80;0.50;;;;;;;-143.84;99.11;45157.59;5072834;28;20456;-61
2024/01/18 01:52:31;;;;;;;0.83;0.73;;;;;;;-143.84;99.06;45117.63;5072709;28;20455;-61
2024/01/18 01:54:59;;;;;;;1.33;1.23;;;;;;;-143.84;98.50;45184.25;5072536;28;20429;-61
2024/01/18 01:57:27;;;;;;;0.90;0.80;;;;;;;-143.84;98.75;45155.69;5072578;28;21095;-62
2024/01/18 01:59:55;;;;;;;2.43;0.83;;;;;;;-143.84;98.49;45127.13;5072320;28;20484;-61
2024/01/18 02:02:24;;;;;;;1.37;0.87;;;;;;;-143.84;98.02;45150.00;5072624;28;20824;-61
2024/01/18 02:04:53;;;;;;;3.00;0.93;;;;;;;-143.84;98.02;45151.91;5072309;28;20443;-61
2024/01/18 02:07:22;;;;;;;2.70;1.33;;;;;;;-143.84;97.95;45167.13;5072293;28;20437;-61
2024/01/18 02:09:49;;;;;;;0.80;0.53;;;;;;;-143.84;98.26;45130.94;5072416;28;21348;-61
2024/01/18 02:12:16;;;;;;;1.30;0.90;;;;;;;-143.84;98.13;45161.41;5071997;28;20538;-61
2024/01/18 02:14:45;;;;;;;0.80;0.60;;;;;;;-143.84;98.21;45167.13;5072244;28;20433;-61
2024/01/18 02:17:13;;;;;;;1.50;1.40;;;;;;;-143.84;98.88;45155.69;5080356;28;20500;-61
2024/01/18 02:19:40;;;;;;;1.40;1.30;;;;;;;-143.84;98.55;45170.94;5072172;28;20537;-61
2024/01/18 02:22:09;;;;;;;6.50;2.40;;;;;;;-143.84;98.53;45157.59;5071916;28;20437;-61
2024/01/18 02:24:42;;;;;;;3.53;1.10;;;;;;;-143.84;98.82;45148.09;5072067;28;20509;-61
2024/01/18 02:27:11;;;;;;;1.57;1.47;;;;;;;-143.84;99.43;45125.22;5072092;28;20482;-61
2024/01/18 02:29:38;;;;;;;1.13;1.03;;;;;;;-143.84;99.21;45132.84;5071772;28;20437;-61
2024/01/18 02:32:06;;;;;;;0.80;0.70;;;;;;;-143.84;99.49;45136.66;5072008;28;20447;-61
2024/01/18 02:34:38;;;;;;;1.20;0.97;;;;;;;-143.84;99.71;45148.09;5072022;28;20459;-61
2024/01/18 02:37:06;;;;;;;18.50;1.83;;;;;;;-143.84;99.73;45146.19;5071880;28;20527;-61
2024/01/18 02:39:33;;;;;;;1.63;1.53;;;;;;;-143.84;99.41;45155.69;5071752;28;21281;-61
2024/01/18 02:42:01;;;;;;;1.30;1.13;;;;;;;-143.84;99.71;45159.50;5072198;28;20437;-61
2024/01/18 02:44:29;;;;;;;1.63;1.53;;;;;;;-143.84;99.05;45130.94;5071710;28;20560;-61
2024/01/18 02:46:57;;;;;;;1.20;1.10;;;;;;;-143.84;99.04;45159.50;5071551;28;20859;-61
2024/01/18 02:49:24;;;;;;;2.10;1.23;;;;;;;-143.84;99.22;45146.19;5071537;28;20437;-61
2024/01/18 02:51:51;;;;;;;0.80;0.70;;;;;;;-143.84;99.26;45148.09;5071395;28;20502;-61
2024/01/18 02:54:18;;;;;;;0.80;0.70;;;;;;;-143.84;99.28;45151.91;5071723;28;20498;-61
2024/01/18 02:56:45;;;;;;;1.50;1.40;;;;;;;-143.84;99.65;45155.69;5071601;28;20437;-61
2024/01/18 02:59:12;;;;;;;3.47;1.70;;;;;;;-143.84;99.62;45132.84;5070963;28;20486;-61
2024/01/18 03:01:41;;;;;;;6.30;1.23;;;;;;;-143.84;100.00;45117.63;5071122;28;20448;-61
2024/01/18 03:04:08;;;;;;;1.40;1.30;;;;;;;-143.84;100.00;45117.63;5071014;28;20525;-61
2024/01/18 03:06:35;;;;;;;1.97;1.43;;;;;;;-143.84;100.00;45151.91;5071326;28;20449;-61
2024/01/18 03:09:02;;;;;;;1.63;1.53;;;;;;;-143.84;100.00;45144.28;5071375;28;20445;-61
2024/01/18 03:11:29;;;;;;;2.80;1.13;;;;;;;-143.84;100.00;45121.44;5071080;28;20492;-61
2024/01/18 03:13:56;;;;;;;1.00;0.80;;;;;;;-143.84;100.00;45125.22;5071257;28;20441;-61
2024/01/18 03:16:23;;;;;;;1.83;1.60;;;;;;;-143.84;100.00;45136.66;5070978;28;20498;-61
2024/01/18 03:18:52;;;;;;;1.00;0.90;;;;;;;-143.84;99.94;45150.00;5070763;28;20433;-61
2024/01/18 03:21:19;;;;;;;1.53;1.43;;;;;;;-143.84;99.86;45144.28;5070916;28;20818;-61
2024/01/18 03:23:46;;;;;;;10.70;1.10;;;;;;;-143.84;99.29;45136.66;5070795;28;20437;-61
2024/01/18 03:26:14;;;;;;;4.07;0.80;;;;;;;-143.84;99.13;45108.09;5071062;28;20456;-62
2024/01/18 03:28:41;;;;;;;1.70;1.60;;;;;;;-143.84;99.12;45144.28;5070701;28;20550;-62
2024/01/18 03:31:11;;;;;;;1.93;1.83;;;;;;;-143.84;98.97;45148.09;5070786;28;20852;-61
2024/01/18 03:33:39;;;;;;;1.27;1.17;;;;;;;-143.84;98.68;45127.13;5070604;28;20532;-62
2024/01/18 03:36:10;;;;;;;1.93;1.77;;;;;;;-143.84;97.83;45140.47;5070814;28;20440;-62
2024/01/18 03:38:37;;;;;;;1.23;1.13;;;;;;;-143.84;97.74;45157.59;5070426;28;20528;-62
2024/01/18 03:41:04;;;;;;;1.40;1.30;;;;;;;-143.84;97.50;45146.19;5070548;28;20480;-62
2024/01/18 03:43:32;;;;;;;2.33;1.03;;;;;;;-143.84;97.02;45127.13;5070600;28;20433;-62
2024/01/18 03:45:59;;;;;;;1.30;1.13;;;;;;;-143.84;96.52;45157.59;5070535;28;20444;-62
2024/01/18 03:48:26;;;;;;;1.17;0.90;;;;;;;-143.84;96.30;45144.28;5070359;28;21004;-62
2024/01/18 03:50:53;;;;;;;1.13;1.03;;;;;;;-143.84;96.23;45172.84;5070255;28;20475;-62
2024/01/18 03:53:21;;;;;;;1.70;1.60;;;;;;;-143.84;96.48;45170.94;5070495;28;20436;-62
2024/01/18 03:55:48;;;;;;;0.80;0.60;;;;;;;-143.84;96.40;45174.75;5070464;28;20445;-62
2024/01/18 03:58:15;;;;;;;2.40;2.20;;;;;;;-143.84;96.23;45153.81;5070181;28;20437;-62
2024/01/18 04:00:42;;;;;;;1.23;1.13;;;;;;;-143.84;96.38;45161.41;5070188;28;21024;-62
2024/01/18 04:03:10;;;;;;;1.17;1.07;;;;;;;-143.84;96.14;45169.03;5070036;28;20440;-62
2024/01/18 04:05:37;;;;;;;6.47;1.43;;;;;;;-143.84;96.33;45151.91;5070120;28;21000;-61
2024/01/18 04:08:04;;;;;;;1.67;1.13;;;;;;;-143.84;96.01;45167.13;5070115;28;20481;-62
2024/01/18 04:10:33;;;;;;;1.10;1.00;;;;;;;-143.84;96.10;45163.31;5068898;28;21376;-62
2024/01/18 04:13:00;;;;;;;1.07;0.97;;;;;;;-143.84;95.96;45174.75;5068784;28;21303;-62
2024/01/18 04:15:27;;;;;;;1.40;1.20;;;;;;;-143.84;95.79;45176.66;5069318;28;20443;-62
2024/01/18 04:17:54;;;;;;;1.77;1.30;;;;;;;-143.84;95.16;45174.75;5069426;28;20510;-62
2024/01/18 04:20:26;;;;;;;1.10;1.00;;;;;;;-143.84;95.03;45155.69;5069902;28;20487;-62
2024/01/18 04:22:54;;;;;;;1.00;0.80;;;;;;;-143.84;94.81;45144.28;5069736;28;20483;-61
2024/01/18 04:25:21;;;;;;;3.83;2.97;;;;;;;-143.84;94.73;45178.56;5069621;28;20527;-61
2024/01/18 04:27:50;;;;;;;0.80;0.60;;;;;;;-143.84;94.12;45123.34;5069790;28;20490;-62
2024/01/18 04:30:17;;;;;;;0.90;0.80;;;;;;;-143.84;93.85;45159.50;5069683;28;20456;-62
2024/01/18 04:32:44;;;;;;;1.00;0.80;;;;;;;-143.84;93.41;45153.81;5077509;28;20444;-62
2024/01/18 04:35:12;;;;;;;1.57;1.27;;;;;;;-143.84;93.05;45176.66;5089927;28;20803;-62
2024/01/18 04:37:39;;;;;;;1.13;1.03;;;;;;;-143.84;92.77;45150.00;5089706;28;20439;-62
2024/01/18 04:40:07;;;;;;;1.73;0.87;;;;;;;-143.84;92.40;45148.09;5089653;28;20515;-62
2024/01/18 04:42:34;;;;;;;4.50;2.20;;;;;;;-143.84;92.38;45161.41;5089773;28;20431;-62
2024/01/18 04:45:06;;;;;;;2.23;1.77;;;;;;;-143.84;92.22;45159.50;5089627;28;20521;-62
2024/01/18 04:47:33;;;;;;;0.80;0.50;;;;;;;-143.84;91.83;45155.69;5089294;28;20444;-61
2024/01/18 04:50:00;;;;;;;1.33;1.23;;;;;;;-143.84;91.15;45174.75;5089562;28;20457;-62
2024/01/18 04:52:27;;;;;;;0.80;0.60;;;;;;;-143.84;90.84;45144.28;5089510;28;20440;-62
2024/01/18 04:54:56;;;;;;;0.90;0.80;;;;;;;-143.84;90.48;45157.59;5089923;28;20857;-62
2024/01/18 04:57:23;;;;;;;1.10;1.00;;;;;;;-143.84;90.51;45157.59;5089314;28;20917;-62
2024/01/18 04:59:51;;;;;;;1.17;1.07;;;;;;;-143.84;89.96;45161.41;5089003;28;20435;-62
2024/01/18 05:02:20;;;;;;;1.70;1.17;;;;;;;-143.84;90.07;45186.16;5087587;28;20945;-62
2024/01/18 05:04:47;;;;;;;0.90;0.80;;;;;;;-143.84;89.39;45153.81;5069165;28;20614;-62
2024/01/18 05:07:14;;;;;;;1.57;1.37;;;;;;;-143.84;89.14;45157.59;5069124;28;20432;-62
2024/01/18 05:09:41;;;;;;;1.00;0.83;;;;;;;-143.84;89.29;45170.94;5068963;28;20437;-62
2024/01/18 05:12:08;;;;;;;5.90;2.60;;;;;;;-143.84;89.16;45188.06;5068762;28;20480;-62
2024/01/18 05:14:36;;;;;;;0.80;0.60;;;;;;;-143.84;89.33;45155.69;5068957;28;20443;-62
2024/01/18 05:17:10;;;;;;;1.50;1.40;;;;;;;-143.84;89.04;45157.59;5069073;28;20448;-62
2024/01/18 05:19:39;;;;;;;1.00;0.70;;;;;;;-143.84;88.96;45136.66;5068811;28;20509;-62
2024/01/18 05:22:07;;;;;;;3.03;0.97;;;;;;;-143.84;88.95;45155.69;5069253;28;20476;-62
2024/01/18 05:24:34;;;;;;;0.80;0.40;;;;;;;-143.84;89.60;45155.69;5068689;28;20452;-62
2024/01/18 05:27:01;;;;;;;1.30;1.20;;;;;;;-143.84;89.84;45157.59;5068950;28;20475;-62
2024/01/18 05:29:28;;;;;;;1.73;1.30;;;;;;;-143.84;89.89;45157.59;5068371;28;20440;-62
2024/01/18 05:31:55;;;;;;;1.77;1.67;;;;;;;-143.84;89.71;45184.25;5068437;28;20435;-62
2024/01/18 05:34:23;;;;;;;1.60;1.20;;;;;;;-143.84;89.65;45170.94;5068494;28;20437;-62
2024/01/18 05:36:51;;;;;;;2.00;0.97;;;;;;;-143.84;89.34;45165.22;5068564;28;20433;-62
2024/01/18 05:39:18;;;;;;;2.00;1.53;;;;;;;-143.84;89.58;45142.38;5068380;28;20449;-62
2024/01/18 05:41:45;;;;;;;1.00;0.70;;;;;;;-143.84;89.68;45151.91;5068699;28;20872;-62
2024/01/18 05:44:12;;;;;;;0.90;0.70;;;;;;;-143.84;89.91;45153.81;5068373;28;20437;-62
2024/01/18 05:46:40;;;;;;;0.90;0.70;;;;;;;-143.84;89.94;45165.22;5068482;28;20447;-62
2024/01/18 05:49:07;;;;;;;1.10;0.70;;;;;;;-143.84;89.67;45157.59;5068733;28;20433;-62
2024/01/18 05:51:34;;;;;;;1.00;0.90;;;;;;;-143.84;89.61;45180.47;5068809;28;20433;-62
2024/01/18 05:54:03;;;;;;;1.47;0.60;;;;;;;-143.84;89.30;45155.69;5068904;28;20440;-62
2024/01/18 05:56:30;;;;;;;0.80;0.50;;;;;;;-143.84;89.64;45159.50;5069095;28;20445;-62
2024/01/18 05:58:57;;;;;;;7.70;1.03;;;;;;;-143.84;89.46;45157.59;5068596;28;20522;-62
2024/01/18 06:01:24;;;;;;;1.17;1.07;;;;;;;-143.84;89.21;45155.69;5077775;28;20467;-62
2024/01/18 06:03:51;;;;;;;1.20;1.03;;;;;;;-143.84;88.99;45176.66;5071736;28;21007;-62
2024/01/18 06:06:18;;;;;;;1.53;1.40;;;;;;;-143.84;89.13;45146.19;5068614;28;20449;-62
2024/01/18 06:08:45;;;;;;;1.37;1.10;;;;;;;-143.84;89.04;45134.75;5068647;28;20490;-62
2024/01/18 06:11:14;;;;;;;0.80;0.50;;;;;;;-143.84;88.93;45157.59;5068473;28;20529;-62
2024/01/18 06:13:41;;;;;;;1.60;1.50;;;;;;;-143.84;88.67;45148.09;5068350;28;20441;-62
2024/01/18 06:16:10;;;;;;;2.03;1.83;;;;;;;-143.84;88.83;45148.09;5068623;28;20792;-61
2024/01/18 06:18:37;;;;;;;1.80;1.70;;;;;;;-143.84;88.41;45159.50;5068666;28;20441;-61
2024/01/18 06:21:07;;;;;;;4.80;3.57;;;;;;;-143.84;87.78;45148.09;5068401;28;20572;-61
2024/01/18 06:23:35;;;;;;;0.87;0.60;;;;;;;-143.84;87.69;45150.00;5068383;28;20986;-62
2024/01/18 06:26:02;;;;;;;1.77;1.27;;;;;;;-143.84;88.04;45163.31;5068328;28;20437;-62
2024/01/18 06:28:30;;;;;;;8.43;1.97;;;;;;;-143.84;87.71;45169.03;5068569;28;20433;-62
2024/01/18 06:30:58;;;;;;;1.20;1.10;;;;;;;-143.84;87.47;45161.41;5068178;28;20440;-62
2024/01/18 06:33:26;;;;;;;1.07;0.80;;;;;;;-143.84;87.65;45184.25;5068487;28;20514;-62
2024/01/18 06:35:53;;;;;;;1.00;0.83;;;;;;;-143.84;87.33;45157.59;5070377;28;20498;-62
2024/01/18 06:38:20;;;;;;;1.07;0.97;;;;;;;-143.84;87.61;45169.03;5071740;28;20441;-62
2024/01/18 06:40:47;;;;;;;1.67;1.57;;;;;;;-143.84;86.95;45184.25;5071469;28;20534;-62
2024/01/18 06:43:14;;;;;;;1.17;1.07;;;;;;;-143.84;87.05;45151.91;5071584;28;20432;-62
2024/01/18 06:45:43;;;;;;;0.80;0.53;;;;;;;-143.84;86.86;45134.75;5072075;28;20799;-62
2024/01/18 06:48:10;;;;;;;1.00;0.80;;;;;;;-143.84;86.67;45167.13;5071861;28;20437;-62
2024/01/18 06:50:38;;;;;;;1.43;1.33;;;;;;;-143.84;86.61;45142.38;5071686;28;20968;-62
2024/01/18 06:53:05;;;;;;;0.90;0.70;;;;;;;-143.84;86.57;45189.97;5071528;28;20825;-62
2024/01/18 06:55:32;;;;;;;1.73;1.10;;;;;;;-143.84;86.62;45130.94;5071540;28;20482;-62
2024/01/18 06:58:02;;;;;;;0.90;0.73;;;;;;;-143.84;86.76;45127.13;5071804;28;20845;-62
2024/01/18 07:00:29;;;;;;;1.17;1.07;;;;;;;-143.84;87.01;45142.38;5071338;28;20441;-62
2024/01/18 07:02:57;;;;;;;1.00;0.87;;;;;;;-143.84;87.01;45144.28;5071643;28;21001;-62
2024/01/18 07:05:25;;;;;;;0.93;0.83;;;;;;;-143.84;87.19;45161.41;5071651;28;20433;-61
2024/01/18 07:07:52;;;;;;;4.03;1.33;;;;;;;-143.84;87.16;45169.03;5072237;28;20528;-61
2024/01/18 07:10:20;;;;;;;1.10;1.00;;;;;;;-143.84;86.78;45136.66;5070798;28;20496;-62
2024/01/18 07:12:48;;;;;;;1.00;0.90;;;;;;;-143.84;86.15;45163.31;5070904;28;20445;-62
2024/01/18 07:15:15;;;;;;;1.10;1.00;;;;;;;-143.84;85.83;45111.91;5071891;28;20449;-62
2024/01/18 07:17:42;;;;;;;1.00;0.90;;;;;;;-143.84;86.16;45134.75;5070462;28;20451;-62
2024/01/18 07:20:11;;;;;;;1.27;1.10;;;;;;;-143.84;86.15;45163.31;5070545;28;20437;-62
2024/01/18 07:22:39;;;;;;;1.20;1.10;;;;;;;-143.84;86.77;45151.91;5069949;28;20491;-62
2024/01/18 07:25:07;;;;;;;1.67;0.90;;;;;;;-143.84;87.13;45191.88;5070546;28;20469;-62
2024/01/18 07:27:34;;;;;;;0.80;0.53;;;;;;;-143.84;87.25;45165.22;5070709;28;20448;-62
2024/01/18 07:30:03;;;;;;;1.10;0.83;;;;;;;-143.84;87.73;45151.91;5070520;28;20444;-62
2024/01/18 07:32:30;;;;;;;1.00;0.67;;;;;;;-143.84;88.07;45163.31;5070892;28;20449;-62
2024/01/18 07:34:57;;;;;;;1.27;0.70;;;;;;;-143.84;88.58;45155.69;5070767;28;20441;-62
2024/01/18 07:37:27;;;;;;;5.97;1.80;;;;;;;-143.84;88.84;45176.66;5070764;28;21227;-62
2024/01/18 07:39:54;;;;;;;1.53;1.43;;;;;;;-143.84;88.72;45167.13;5070659;28;20437;-62
2024/01/18 07:42:21;;;;;;;1.60;1.27;;;;;;;-143.84;89.25;45159.50;5070663;28;20529;-62
2024/01/18 07:44:48;;;;;;;3.03;1.83;;;;;;;-143.84;89.48;45163.31;5070650;28;20445;-60
2024/01/18 07:47:16;;;;;;;1.23;1.00;;;;;;;-143.84;88.93;45163.31;5071248;28;20429;-60
2024/01/18 07:49:46;;;;;;;1.10;1.00;;;;;;;-143.84;89.59;45155.69;5070965;28;20584;-61
2024/01/18 07:52:13;;;;;;;1.73;1.10;;;;;;;-143.84;89.41;45140.47;5070552;28;20449;-61
2024/01/18 07:54:41;;;;;;;1.47;1.27;;;;;;;-143.84;89.06;45142.38;5070560;28;20471;-61
2024/01/18 07:57:09;;;;;;;2.80;2.30;;;;;;;-143.84;88.87;45163.31;5071462;28;20445;-62
2024/01/18 07:59:36;;;;;;;3.13;2.83;;;;;;;-143.84;88.98;45146.19;5071203;28;20440;-60
2024/01/18 08:02:03;;;;;;;1.07;0.97;;;;;;;-143.84;88.58;45174.75;5071824;28;20483;-60
2024/01/18 08:04:31;;;;;;;1.43;1.33;;;;;;;-143.84;88.93;45169.03;5072039;28;20448;-60
2024/01/18 08:06:58;;;;;;;1.57;1.47;;;;;;;-143.84;89.20;45142.38;5072124;28;20433;-61
2024/01/18 08:09:25;;;;;;;2.60;1.70;;;;;;;-143.84;89.60;45150.00;5072115;28;20498;-61
2024/01/18 08:11:54;;;;;;;0.90;0.60;;;;;;;-143.84;89.21;45140.47;5071951;28;20481;-60
2024/01/18 08:14:21;;;;;;;1.17;0.77;;;;;;;-143.84;88.95;45153.81;5071809;28;20452;-61
2024/01/18 08:16:48;;;;;;;1.00;0.90;;;;;;;-143.84;89.23;45144.28;5072067;28;20441;-60
2024/01/18 08:19:15;;;;;;;1.80;1.40;;;;;;;-143.84;88.64;45130.94;5071931;28;20441;-61
2024/01/18 08:21:44;;;;;;;1.63;1.07;;;;;;;-143.84;88.58;45146.19;5071665;28;20484;-61
2024/01/18 08:24:11;;;;;;;0.87;0.73;;;;;;;-143.84;88.02;45140.47;5071985;28;20795;-60
2024/01/18 08:26:39;;;;;;;2.70;2.13;;;;;;;-143.84;87.82;45136.66;5071758;28;20502;-61
2024/01/18 08:29:07;;;;;;;1.20;1.10;;;;;;;-143.84;87.65;45148.09;5072053;28;20508;-60
2024/01/18 08:31:34;;;;;;;4.80;1.73;;;;;;;-143.84;87.62;45167.13;5071430;28;20842;-60
2024/01/18 08:34:02;;;;;;;4.23;1.70;;;;;;;-143.84;87.39;45146.19;5071447;28;20717;-60
2024/01/18 08:36:29;;;;;;;0.80;0.67;;;;;;;-143.84;87.56;45161.41;5071623;28;20444;-60
2024/01/18 08:38:56;;;;;;;2.83;1.17;;;;;;;-143.84;87.45;45132.84;5071548;28;20866;-60
2024/01/18 08:41:23;;;;;;;0.80;0.60;;;;;;;-143.84;87.54;45148.09;5071603;28;20533;-60
2024/01/18 08:43:50;;;;;;;1.73;1.13;;;;;;;-143.84;86.96;45159.50;5071032;28;20445;-60
2024/01/18 08:46:19;;;;;;;1.20;0.80;;;;;;;-143.84;87.28;45110.00;5071112;28;21015;-60
2024/01/18 08:48:46;;;;;;;1.63;1.53;;;;;;;-143.84;87.71;45148.09;5070982;28;20508;-60
2024/01/18 08:51:14;;;;;;;1.03;0.83;;;;;;;-143.84;87.19;45151.91;5071012;28;20451;-60
2024/01/18 08:53:41;;;;;;;2.27;1.33;;;;;;;-143.84;86.83;45140.47;5070250;28;20440;-61
2024/01/18 08:56:09;;;;;;;1.10;1.00;;;;;;;-143.84;86.04;45140.47;5069912;28;20520;-60
2024/01/18 08:58:37;;;;;;;1.47;1.37;;;;;;;-143.84;86.16;45125.22;5069671;28;20440;-61
2024/01/18 09:01:04;;;;;;;13.30;3.30;;;;;;;-143.84;85.45;45127.13;5070180;28;20433;-62
2024/01/18 09:03:33;;;;;;;1.33;1.23;;;;;;;-143.84;85.62;45153.81;5070206;28;20441;-61
2024/01/18 09:06:00;;;;;;;1.30;1.20;;;;;;;-143.84;85.51;45121.44;5069800;28;20448;-61
2024/01/18 09:08:27;;;;;;;2.03;0.70;;;;;;;-143.84;85.08;45130.94;5069639;28;20452;-61
2024/01/18 09:10:54;;;;;;;2.03;1.47;;;;;;;-143.84;85.41;45170.94;5074409;28;20473;-61
2024/01/18 09:13:21;;;;;;;1.60;1.50;;;;;;;-143.84;85.14;45148.09;5086114;28;20452;-61
2024/01/18 09:15:50;;;;;;;1.27;1.17;;;;;;;-143.84;84.25;45127.13;5077119;28;20502;-61
2024/01/18 09:18:17;;;;;;;1.83;1.67;;;;;;;-143.84;83.95;45142.38;5080247;28;20483;-61
2024/01/18 09:20:46;;;;;;;1.73;1.07;;;;;;;-143.84;83.90;45138.56;5075876;28;20508;-61
2024/01/18 09:23:13;;;;;;;1.80;1.03;;;;;;;-143.84;83.56;45125.22;5081707;28;20487;-61
2024/01/18 09:25:40;;;;;;;1.63;1.13;;;;;;;-143.84;83.24;45140.47;5079144;28;20793;-61
2024/01/18 09:28:09;;;;;;;6.30;2.30;;;;;;;-143.84;83.15;45157.59;5084429;28;20483;-61
2024/01/18 09:30:36;;;;;;;1.43;1.13;;;;;;;-143.84;83.01;45172.84;5082245;28;20545;-62
2024/01/18 09:33:04;;;;;;;5.33;2.90;;;;;;;-143.84;83.19;45130.94;5086781;28;20447;-62
2024/01/18 09:35:31;;;;;;;1.20;1.00;;;;;;;-143.84;82.92;45167.13;5078143;28;20455;-61
2024/01/18 09:38:03;;;;;;;1.53;0.80;;;;;;;-143.84;83.01;45140.47;5079413;28;20436;-61
2024/01/18 09:40:30;;;;;;;4.03;1.30;;;;;;;-143.84;82.92;45148.09;5085542;28;20455;-61
2024/01/18 09:43:00;;;;;;;1.43;0.63;;;;;;;-143.84;82.67;45130.94;5084678;28;20491;-61
2024/01/18 09:45:32;;;;;;;1.20;0.93;;;;;;;-143.84;82.48;45125.22;5085022;28;20941;-61
2024/01/18 09:47:59;;;;;;;1.13;1.03;;;;;;;-143.84;81.79;45167.13;5078563;28;20531;-61
2024/01/18 09:50:27;;;;;;;1.10;0.70;;;;;;;-143.84;82.17;45138.56;5082821;28;21216;-61
2024/01/18 09:52:54;;;;;;;0.90;0.80;;;;;;;-143.84;81.66;45148.09;5083431;28;20452;-61
2024/01/18 09:55:22;;;;;;;1.70;0.97;;;;;;;-143.84;81.30;45121.44;5086516;28;20440;-61
2024/01/18 09:57:56;;;;;;;1.43;1.20;;;;;;;-143.84;79.31;45195.69;5080799;28;20449;-61
2024/01/18 10:00:27;;;;;;;2.60;2.03;;;;;;;-143.84;78.80;45138.56;5082126;28;20820;-61
2024/01/18 10:02:55;;;;;;;1.10;1.00;;;;;;;-143.84;78.03;45104.28;5068727;28;20488;-61
2024/01/18 10:05:23;;;;;;;1.10;1.00;;;;;;;-143.84;78.17;45134.75;5080846;28;20454;-61
2024/01/18 10:07:50;;;;;;;1.20;0.70;;;;;;;-143.84;77.69;45129.03;5077978;28;20449;-61
2024/01/18 10:10:18;;;;;;;1.23;0.80;;;;;;;-143.84;77.22;45136.66;5070808;28;20459;-61
2024/01/18 10:12:48;;;;;;;3.47;1.00;;;;;;;-143.84;76.62;45113.81;5080436;28;20440;-61
2024/01/18 10:15:32;;;;;;;1.73;1.63;;;;;;;-143.84;75.61;45094.78;5077008;28;20451;-61
2024/01/18 10:17:59;;;;;;;1.73;1.30;;;;;;;-143.84;75.21;45117.63;5080814;28;20880;-61
2024/01/18 10:20:26;;;;;;;2.50;1.23;;;;;;;-143.84;75.31;45119.53;5074111;28;20445;-61
2024/01/18 10:22:55;;;;;;;1.40;1.00;;;;;;;-143.84;75.18;45130.94;5078355;28;20577;-61
2024/01/18 10:25:25;;;;;;;2.10;1.17;;;;;;;-143.84;76.00;45136.66;5078569;28;20992;-61
2024/01/18 10:27:54;;;;;;;2.17;0.70;;;;;;;-143.84;75.07;45186.16;5081252;28;20513;-61
2024/01/18 10:30:22;;;;;;;1.47;1.37;;;;;;;-143.84;74.63;45121.44;5078311;28;20443;-61
2024/01/18 10:32:50;;;;;;;1.50;1.40;;;;;;;-143.84;72.90;45115.72;5078530;28;20460;-61
2024/01/18 10:35:24;;;;;;;1.10;1.00;;;;;;;-143.84;72.72;45110.00;5082476;28;20522;-61
2024/01/18 10:38:02;;;;;;;3.63;1.50;;;;;;;-143.84;72.10;45108.09;5080273;28;20556;-61
2024/01/18 10:40:31;;;;;;;1.20;0.83;;;;;;;-143.84;70.91;45119.53;5081372;28;20553;-61
2024/01/18 10:43:00;;;;;;;0.90;0.80;;;;;;;-143.84;70.92;45121.44;5081594;28;21027;-61
2024/01/18 10:45:30;;;;;;;1.50;1.40;;;;;;;-143.84;69.86;45106.19;5079272;28;20489;-61
2024/01/18 10:47:58;;;;;;;1.60;1.50;;;;;;;-143.84;70.56;45119.53;5075605;28;20476;-61
2024/01/18 10:50:27;;;;;;;1.23;1.13;;;;;;;-143.84;70.31;45121.44;5081601;28;20437;-61
2024/01/18 10:52:55;;;;;;;3.33;1.20;;;;;;;-143.84;70.18;45121.44;5081763;28;20965;-61
2024/01/18 10:55:22;;;;;;;1.77;1.33;;;;;;;-143.84;70.51;45106.19;5082420;28;20455;-61
2024/01/18 10:57:51;;;;;;;0.90;0.60;;;;;;;-143.84;70.04;45111.91;5090852;28;20444;-61
2024/01/18 11:00:20;;;;;;;1.47;1.07;;;;;;;-143.84;69.04;45119.53;5092682;28;20501;-62
2024/01/18 11:02:48;;;;;;;4.23;3.83;;;;;;;-143.84;68.89;45096.66;5088097;28;20922;-62
2024/01/18 11:05:17;;;;;;;1.37;1.27;;;;;;;-143.84;67.78;45111.91;5082276;28;20470;-61
2024/01/18 11:07:44;;;;;;;3.97;2.80;;;;;;;-143.84;66.69;45115.72;5084719;28;20493;-61
2024/01/18 11:10:12;;;;;;;1.43;1.33;;;;;;;-143.84;66.64;45092.88;5081289;28;20440;-61
2024/01/18 11:12:41;;;;;;;1.37;1.27;;;;;;;-143.84;66.32;45138.56;5089041;28;20452;-61
2024/01/18 11:15:11;;;;;;;1.77;1.50;;;;;;;-143.84;66.98;45121.44;5079905;28;20467;-61
2024/01/18 11:17:46;;;;;;;2.43;1.60;;;;;;;-143.84;66.87;45142.38;5087979;28;20440;-62
2024/01/18 11:20:14;;;;;;;2.63;1.63;;;;;;;-143.84;65.82;45117.63;5081419;28;20452;-62